Time;durP1;ratioP1;P1;durP2;ratioP2;P2;SDS_P1;SDS_P2;PMS_P1;PMS_P2;Temp;Humidity;BMP_temperature;BMP_pressure;BME280_temperature;BME280_humidity;BME280_pressure;Samples;Min_cycle;Max_cycle;Signal;HPM_P1;HPM_P2
2023/08/09 00:01:45;;;;;;;12.25;6.93;;;17.10;73.90;;;;;;5055304;28;20025;-86
2023/08/09 00:04:12;;;;;;;13.77;6.38;;;17.20;72.60;;;;;;5063890;28;20152;-75
2023/08/09 00:06:39;;;;;;;12.65;7.10;;;17.30;71.80;;;;;;5069925;28;20077;-75
2023/08/09 00:09:07;;;;;;;12.23;6.95;;;17.50;71.90;;;;;;5057499;28;20080;-84
2023/08/09 00:11:35;;;;;;;9.77;5.78;;;17.70;70.90;;;;;;5055481;28;20039;-79
2023/08/09 00:14:02;;;;;;;10.77;6.43;;;17.80;70.10;;;;;;5060039;28;20021;-76
2023/08/09 00:16:30;;;;;;;10.48;5.65;;;17.90;70.00;;;;;;5044566;28;20483;-79
2023/08/09 00:18:57;;;;;;;9.40;4.78;;;18.10;70.20;;;;;;5035220;28;20044;-77
2023/08/09 00:21:25;;;;;;;8.48;3.90;;;18.20;69.90;;;;;;5050052;28;20021;-77
2023/08/09 00:23:52;;;;;;;10.85;3.55;;;18.30;68.50;;;;;;5072245;28;20033;-76
2023/08/09 00:26:21;;;;;;;6.88;3.50;;;18.40;68.50;;;;;;5063224;28;21004;-84
2023/08/09 00:28:48;;;;;;;8.88;3.30;;;18.50;68.50;;;;;;5059616;28;20039;-77
2023/08/09 00:31:15;;;;;;;8.10;3.40;;;18.70;68.10;;;;;;5051856;28;20036;-77
2023/08/09 00:33:43;;;;;;;10.02;2.78;;;18.70;67.10;;;;;;5048589;28;20071;-85
2023/08/09 00:36:10;;;;;;;8.18;2.78;;;18.80;67.00;;;;;;5054580;28;20021;-78
2023/08/09 00:38:38;;;;;;;6.68;2.90;;;18.90;66.50;;;;;;5055206;28;20375;-77
2023/08/09 00:41:06;;;;;;;6.55;2.50;;;19.00;66.00;;;;;;5055863;28;20075;-77
2023/08/09 00:43:33;;;;;;;6.03;2.60;;;19.10;65.60;;;;;;5052118;28;20037;-77
2023/08/09 00:46:01;;;;;;;7.25;2.22;;;19.00;64.80;;;;;;5050649;28;20179;-77
2023/08/09 00:48:28;;;;;;;7.53;2.20;;;19.10;65.50;;;;;;5041799;28;20032;-78
2023/08/09 00:50:56;;;;;;;7.13;2.70;;;19.20;65.50;;;;;;5068361;28;20036;-84
2023/08/09 00:53:24;;;;;;;5.97;2.45;;;19.40;65.20;;;;;;5059932;28;20017;-79
2023/08/09 00:55:56;;;;;;;5.93;2.33;;;19.50;65.20;;;;;;5069178;28;20028;-80
2023/08/09 00:58:25;;;;;;;7.25;2.38;;;19.60;63.50;;;;;;5052730;28;20075;-79
2023/08/09 01:00:52;;;;;;;7.28;2.50;;;19.80;63.50;;;;;;5050967;28;20505;-80
2023/08/09 01:03:20;;;;;;;4.70;2.40;;;19.90;62.70;;;;;;5042217;28;20036;-79
2023/08/09 01:06:03;;;;;;;7.30;2.33;;;20.00;62.30;;;;;;5045184;28;20029;-83
2023/08/09 01:08:34;;;;;;;8.15;2.20;;;20.20;62.00;;;;;;5043191;28;20067;-81
2023/08/09 01:11:18;;;;;;;4.97;1.88;;;20.20;61.60;;;;;;5048210;28;20032;-80
2023/08/09 01:13:47;;;;;;;5.85;2.00;;;20.20;61.40;;;;;;5058958;28;20032;-82
2023/08/09 01:16:18;;;;;;;10.82;2.38;;;20.20;61.50;;;;;;5069161;28;20025;-79
2023/08/09 01:18:47;;;;;;;5.32;2.28;;;20.30;61.50;;;;;;5051425;28;20044;-80
2023/08/09 01:21:18;;;;;;;4.63;1.95;;;20.30;61.70;;;;;;5055522;28;20020;-80
2023/08/09 01:23:49;;;;;;;7.70;2.10;;;20.50;61.20;;;;;;5055901;28;20096;-79
2023/08/09 01:26:17;;;;;;;7.97;2.05;;;20.60;60.90;;;;;;5050648;28;20071;-81
2023/08/09 01:28:44;;;;;;;5.07;2.25;;;20.60;60.30;;;;;;5059694;28;20037;-80
2023/08/09 01:31:11;;;;;;;4.75;2.10;;;20.40;60.40;;;;;;5060877;28;20048;-83
2023/08/09 01:33:39;;;;;;;4.65;1.88;;;20.30;61.20;;;;;;5057368;28;20111;-80
2023/08/09 01:36:16;;;;;;;4.05;1.75;;;20.40;61.30;;;;;;5059779;28;20013;-79
2023/08/09 01:38:50;;;;;;;5.88;1.70;;;20.50;60.50;;;;;;5048090;28;20040;-80
2023/08/09 01:41:18;;;;;;;3.50;1.40;;;20.60;59.50;;;;;;5050982;28;20361;-82
2023/08/09 01:43:46;;;;;;;5.97;1.58;;;20.50;59.50;;;;;;5051059;28;20021;-82
2023/08/09 01:46:14;;;;;;;2.60;1.30;;;20.70;57.30;;;;;;5056996;28;20032;-80
2023/08/09 01:48:42;;;;;;;3.35;1.15;;;20.50;57.70;;;;;;5052207;28;20037;-81
2023/08/09 01:51:10;;;;;;;3.55;1.40;;;20.70;56.90;;;;;;5053081;28;20020;-81
2023/08/09 01:53:37;;;;;;;3.38;1.30;;;20.70;56.10;;;;;;5053926;28;20053;-81
2023/08/09 01:56:05;;;;;;;4.82;1.10;;;20.70;55.20;;;;;;5054973;28;20426;-81
2023/08/09 01:58:33;;;;;;;3.35;1.10;;;20.70;55.00;;;;;;5062013;28;20037;-80
2023/08/09 02:01:00;;;;;;;3.60;1.15;;;20.60;54.80;;;;;;5060170;28;20029;-80
2023/08/09 02:03:28;;;;;;;1.42;1.02;;;20.60;54.50;;;;;;5068811;28;20040;-81
2023/08/09 02:05:56;;;;;;;4.00;1.05;;;20.50;54.40;;;;;;5053578;28;20207;-81
2023/08/09 02:08:24;;;;;;;3.88;1.15;;;20.30;54.20;;;;;;5054286;28;20166;-80
2023/08/09 02:10:51;;;;;;;1.90;1.10;;;20.30;55.40;;;;;;5053747;28;20135;-81
2023/08/09 02:13:18;;;;;;;3.17;1.35;;;20.30;55.00;;;;;;5056666;28;20368;-81
2023/08/09 02:15:46;;;;;;;2.05;1.55;;;20.40;53.40;;;;;;5045357;28;20388;-85
2023/08/09 02:18:13;;;;;;;3.20;1.30;;;20.30;53.80;;;;;;5055870;28;20187;-81
2023/08/09 02:20:41;;;;;;;2.40;1.33;;;20.30;53.50;;;;;;5050335;28;20371;-80
2023/08/09 02:23:09;;;;;;;1.98;1.20;;;20.40;52.20;;;;;;5054023;28;20020;-81
2023/08/09 02:25:36;;;;;;;4.22;1.70;;;20.20;52.80;;;;;;5054502;28;20017;-81
2023/08/09 02:28:05;;;;;;;3.50;1.38;;;20.20;54.00;;;;;;5053403;28;20025;-81
2023/08/09 02:30:32;;;;;;;3.75;1.30;;;20.20;54.00;;;;;;5051979;28;20478;-83
2023/08/09 02:32:59;;;;;;;5.72;1.45;;;20.20;54.20;;;;;;5045501;28;20411;-81
2023/08/09 02:35:33;;;;;;;4.45;1.20;;;20.30;54.00;;;;;;5053216;28;20946;-81
2023/08/09 02:38:00;;;;;;;2.08;1.20;;;20.20;53.80;;;;;;5053420;28;20033;-81
2023/08/09 02:40:28;;;;;;;1.00;0.95;;;20.20;53.80;;;;;;5056072;28;20052;-81
2023/08/09 02:42:55;;;;;;;2.60;1.30;;;20.10;54.00;;;;;;5052939;28;20483;-80
2023/08/09 02:45:23;;;;;;;3.08;1.25;;;20.20;54.40;;;;;;5052595;28;20033;-80
2023/08/09 02:47:50;;;;;;;4.68;1.48;;;20.20;54.40;;;;;;5048392;28;20438;-81
2023/08/09 02:50:17;;;;;;;2.78;1.60;;;20.20;54.30;;;;;;5045493;28;20078;-79
2023/08/09 02:52:45;;;;;;;2.85;1.50;;;20.30;53.90;;;;;;5042301;28;20109;-79
2023/08/09 02:55:13;;;;;;;1.63;1.40;;;20.40;52.60;;;;;;5032589;28;20079;-83
2023/08/09 02:57:41;;;;;;;1.70;1.10;;;20.40;51.50;;;;;;5046554;28;20116;-80
2023/08/09 03:00:11;;;;;;;2.08;1.27;;;20.40;51.70;;;;;;5036802;28;20076;-80
2023/08/09 03:02:38;;;;;;;1.73;1.00;;;20.40;51.90;;;;;;5049011;28;20103;-83
2023/08/09 03:05:08;;;;;;;3.30;1.63;;;20.40;51.80;;;;;;5050715;28;20032;-81
2023/08/09 03:07:38;;;;;;;1.58;1.10;;;20.30;52.80;;;;;;5049667;28;20074;-81
2023/08/09 03:10:06;;;;;;;1.75;1.00;;;20.30;52.30;;;;;;5048059;28;20095;-80
2023/08/09 03:12:34;;;;;;;3.75;1.40;;;20.40;52.20;;;;;;5052783;28;20850;-81
2023/08/09 03:15:01;;;;;;;2.20;1.23;;;20.40;51.40;;;;;;5050621;28;20049;-81
2023/08/09 03:17:29;;;;;;;2.83;1.50;;;20.40;51.10;;;;;;5048861;28;20036;-82
2023/08/09 03:19:56;;;;;;;2.15;1.25;;;20.50;51.50;;;;;;5055022;28;20055;-79
2023/08/09 03:22:24;;;;;;;3.00;1.58;;;20.50;51.70;;;;;;5054149;28;20013;-78
2023/08/09 03:24:51;;;;;;;4.38;1.85;;;20.50;52.30;;;;;;5057409;28;20033;-78
2023/08/09 03:27:19;;;;;;;1.65;1.00;;;20.50;52.40;;;;;;5052358;28;20025;-80
2023/08/09 03:29:46;;;;;;;1.90;1.20;;;20.50;52.10;;;;;;5049465;28;20188;-81
2023/08/09 03:32:13;;;;;;;3.03;1.33;;;20.50;52.10;;;;;;5049548;28;20025;-82
2023/08/09 03:34:42;;;;;;;4.53;1.60;;;20.40;52.40;;;;;;5052692;28;20104;-80
2023/08/09 03:37:11;;;;;;;2.30;1.50;;;20.50;51.60;;;;;;5052424;28;20017;-82
2023/08/09 03:39:38;;;;;;;3.08;1.38;;;20.50;51.90;;;;;;5052539;28;20040;-83
2023/08/09 03:42:05;;;;;;;1.90;1.30;;;20.60;50.10;;;;;;5052528;28;20029;-82
2023/08/09 03:44:33;;;;;;;1.30;1.20;;;20.60;50.50;;;;;;5051485;28;20029;-82
2023/08/09 03:47:00;;;;;;;2.03;1.20;;;20.70;49.80;;;;;;5052554;28;20025;-80
2023/08/09 03:49:29;;;;;;;1.15;1.00;;;20.70;49.70;;;;;;5052151;28;20036;-81
2023/08/09 03:51:57;;;;;;;1.45;1.00;;;20.70;49.30;;;;;;5052546;28;20122;-80
2023/08/09 03:54:24;;;;;;;1.83;1.10;;;20.80;48.40;;;;;;5051235;28;20033;-80
2023/08/09 03:56:53;;;;;;;2.67;1.38;;;20.80;47.80;;;;;;5051341;28;20651;-82
2023/08/09 03:59:20;;;;;;;1.83;1.30;;;20.80;47.70;;;;;;5050310;28;20029;-81
2023/08/09 04:01:48;;;;;;;3.65;1.20;;;20.70;48.20;;;;;;5047829;28;20017;-81
2023/08/09 04:04:15;;;;;;;2.33;1.55;;;20.80;47.80;;;;;;5046832;28;20025;-78
2023/08/09 04:06:42;;;;;;;3.60;1.15;;;20.80;45.80;;;;;;5052153;28;20550;-79
2023/08/09 04:09:10;;;;;;;2.35;1.15;;;20.80;46.60;;;;;;5052045;28;20055;-82
2023/08/09 04:11:37;;;;;;;1.52;1.10;;;20.80;47.10;;;;;;5052176;28;20414;-80
2023/08/09 04:14:05;;;;;;;2.03;1.23;;;20.70;48.10;;;;;;5052278;28;20025;-80
2023/08/09 04:16:32;;;;;;;1.23;0.90;;;20.70;47.10;;;;;;5051878;28;20028;-78
2023/08/09 04:19:00;;;;;;;1.40;1.08;;;20.70;46.70;;;;;;5051753;28;20435;-77
2023/08/09 04:21:27;;;;;;;3.20;1.60;;;20.60;47.70;;;;;;5051917;28;20025;-77
2023/08/09 04:23:54;;;;;;;1.70;1.30;;;20.70;46.80;;;;;;5051984;28;20175;-80
2023/08/09 04:26:22;;;;;;;1.60;1.08;;;20.60;45.80;;;;;;5052278;28;20463;-85
2023/08/09 04:28:49;;;;;;;2.17;1.30;;;20.60;44.40;;;;;;5052036;28;20541;-78
2023/08/09 04:31:16;;;;;;;1.65;1.20;;;20.60;45.00;;;;;;5049963;28;20021;-79
2023/08/09 04:33:49;;;;;;;2.67;1.00;;;20.60;45.40;;;;;;5052074;28;20036;-80
2023/08/09 04:36:20;;;;;;;1.52;1.13;;;20.60;45.40;;;;;;5050505;28;20032;-77
2023/08/09 04:38:47;;;;;;;2.08;1.20;;;20.60;44.30;;;;;;5051926;28;20483;-77
2023/08/09 04:41:15;;;;;;;1.20;1.10;;;20.70;44.40;;;;;;5054879;28;20056;-78
2023/08/09 04:43:47;;;;;;;1.48;1.00;;;20.70;44.40;;;;;;5054366;28;20033;-78
2023/08/09 04:46:16;;;;;;;1.25;1.00;;;20.70;46.40;;;;;;5055703;28;20021;-81
2023/08/09 04:48:43;;;;;;;2.88;1.10;;;20.70;46.20;;;;;;5055412;28;20033;-81
2023/08/09 04:51:12;;;;;;;4.43;1.52;;;20.70;45.70;;;;;;5055192;28;20021;-78
2023/08/09 04:53:39;;;;;;;0.98;0.90;;;20.80;45.60;;;;;;5055301;28;20029;-82
2023/08/09 04:56:07;;;;;;;2.22;1.10;;;20.70;46.30;;;;;;5055381;28;20029;-78
2023/08/09 04:58:35;;;;;;;1.65;1.08;;;20.70;45.30;;;;;;5055053;28;20488;-78
2023/08/09 05:01:02;;;;;;;2.95;0.95;;;20.80;44.20;;;;;;5054622;28;20123;-81
2023/08/09 05:03:30;;;;;;;2.47;1.10;;;20.70;46.00;;;;;;5053800;28;20143;-82
2023/08/09 05:05:58;;;;;;;1.35;1.10;;;20.70;46.70;;;;;;5055242;28;20372;-80
2023/08/09 05:08:25;;;;;;;2.20;1.10;;;20.70;46.60;;;;;;5054927;28;20025;-87
2023/08/09 05:10:52;;;;;;;2.53;1.48;;;20.70;47.30;;;;;;5038061;28;20442;-85
2023/08/09 05:13:20;;;;;;;1.95;1.02;;;20.70;47.00;;;;;;5034906;28;20037;-84
2023/08/09 05:15:47;;;;;;;7.18;1.35;;;20.70;48.70;;;;;;5051000;28;20641;-82
2023/08/09 05:18:15;;;;;;;3.65;1.40;;;20.60;51.10;;;;;;5054701;28;20048;-84
2023/08/09 05:20:42;;;;;;;3.80;1.30;;;20.60;52.90;;;;;;5055059;28;20471;-81
2023/08/09 05:23:09;;;;;;;3.63;1.88;;;20.60;54.90;;;;;;5053658;28;20116;-82
2023/08/09 05:25:37;;;;;;;1.98;1.25;;;20.60;55.90;;;;;;5054574;28;20052;-80
2023/08/09 05:28:05;;;;;;;5.72;1.50;;;20.50;56.40;;;;;;5054641;28;20442;-79
2023/08/09 05:30:32;;;;;;;4.47;1.38;;;20.50;56.90;;;;;;5054584;28;20067;-83
2023/08/09 05:32:59;;;;;;;4.07;1.40;;;20.50;57.50;;;;;;5054559;28;20095;-82
2023/08/09 05:35:27;;;;;;;3.00;1.10;;;20.40;57.70;;;;;;5054501;28;20029;-85
2023/08/09 05:37:55;;;;;;;5.90;1.73;;;20.30;58.20;;;;;;5054574;28;20025;-83
2023/08/09 05:40:22;;;;;;;2.85;1.27;;;20.30;58.60;;;;;;5054594;28;20150;-83
2023/08/09 05:42:49;;;;;;;8.70;1.40;;;20.30;58.90;;;;;;5053475;28;20368;-83
2023/08/09 05:45:17;;;;;;;10.07;1.38;;;20.30;59.20;;;;;;5053461;28;20029;-85
2023/08/09 05:47:45;;;;;;;3.17;1.50;;;20.30;59.20;;;;;;5054360;28;20021;-83
2023/08/09 05:50:12;;;;;;;5.80;1.30;;;20.20;59.30;;;;;;5052890;28;20124;-82
2023/08/09 05:52:39;;;;;;;231.13;18.33;;;20.20;59.50;;;;;;5052877;28;20089;-80
2023/08/09 05:55:08;;;;;;;13.82;1.60;;;20.10;59.80;;;;;;5054184;28;20103;-81
2023/08/09 05:57:36;;;;;;;5.18;1.30;;;20.00;59.80;;;;;;5054111;28;20025;-81
2023/08/09 06:00:06;;;;;;;4.15;1.45;;;20.00;59.90;;;;;;5050333;28;20443;-85
2023/08/09 06:02:33;;;;;;;6.47;1.45;;;19.90;60.20;;;;;;5050663;28;20352;-77
2023/08/09 06:05:01;;;;;;;2.90;1.20;;;19.80;60.30;;;;;;5052650;28;20033;-77
2023/08/09 06:07:28;;;;;;;6.45;1.50;;;19.70;60.60;;;;;;5053531;28;20021;-85
2023/08/09 06:09:55;;;;;;;3.85;1.40;;;19.70;60.70;;;;;;5053775;28;20029;-86
2023/08/09 06:12:23;;;;;;;5.35;1.48;;;19.60;60.90;;;;;;5052507;28;20072;-83
2023/08/09 06:14:50;;;;;;;5.32;1.10;;;19.60;61.10;;;;;;5053908;28;20104;-85
2023/08/09 06:17:20;;;;;;;3.15;1.00;;;19.50;61.40;;;;;;5053161;28;20044;-79
2023/08/09 06:19:47;;;;;;;4.45;1.30;;;19.40;61.60;;;;;;5053689;28;20020;-81
2023/08/09 06:22:15;;;;;;;6.10;1.05;;;19.40;61.50;;;;;;5052779;28;20041;-82
2023/08/09 06:24:42;;;;;;;2.65;1.40;;;19.30;61.70;;;;;;5053708;28;20439;-80
2023/08/09 06:27:09;;;;;;;3.20;1.25;;;19.30;61.90;;;;;;5053541;28;20017;-79
2023/08/09 06:29:37;;;;;;;4.22;1.23;;;19.30;62.10;;;;;;5053361;28;20086;-78
2023/08/09 06:32:04;;;;;;;2.88;1.30;;;19.20;62.60;;;;;;5053369;28;20029;-77
2023/08/09 06:34:32;;;;;;;4.45;1.33;;;19.20;62.60;;;;;;5049708;28;20033;-79
2023/08/09 06:36:59;;;;;;;2.47;1.10;;;19.20;62.60;;;;;;5033493;28;20025;-78
2023/08/09 06:39:26;;;;;;;2.78;1.30;;;19.10;62.90;;;;;;5033311;28;20034;-77
2023/08/09 06:41:55;;;;;;;3.35;1.48;;;19.00;63.30;;;;;;5033890;28;20030;-78
2023/08/09 06:44:23;;;;;;;5.22;1.48;;;19.00;63.60;;;;;;5053325;28;20021;-77
2023/08/09 06:46:51;;;;;;;5.85;1.38;;;19.00;63.40;;;;;;5053168;28;20025;-78
2023/08/09 06:49:19;;;;;;;5.00;1.60;;;18.90;63.50;;;;;;5052767;28;20400;-81
2023/08/09 06:51:46;;;;;;;4.07;1.38;;;18.90;64.00;;;;;;5051775;28;20487;-77
2023/08/09 06:54:14;;;;;;;6.40;1.50;;;18.80;64.10;;;;;;5053072;28;20028;-78
2023/08/09 06:56:41;;;;;;;4.03;1.45;;;18.80;63.80;;;;;;5051684;28;20415;-79
2023/08/09 06:59:10;;;;;;;3.28;1.15;;;18.70;64.10;;;;;;5050396;28;20037;-82
2023/08/09 07:01:38;;;;;;;3.05;1.15;;;18.70;64.30;;;;;;5052646;28;20418;-80
2023/08/09 07:04:06;;;;;;;4.40;1.50;;;18.70;64.40;;;;;;5052358;28;20024;-80
2023/08/09 07:06:34;;;;;;;3.83;1.40;;;18.50;64.70;;;;;;5050882;28;20097;-80
2023/08/09 07:09:04;;;;;;;3.90;1.55;;;18.50;64.40;;;;;;5051697;28;20491;-77
2023/08/09 07:11:32;;;;;;;4.93;1.48;;;18.50;64.50;;;;;;5049552;28;20426;-77
2023/08/09 07:14:00;;;;;;;4.40;1.45;;;18.50;64.50;;;;;;5052786;28;20029;-79
2023/08/09 07:16:27;;;;;;;4.60;1.55;;;18.50;64.70;;;;;;5051595;28;20028;-78
2023/08/09 07:18:54;;;;;;;3.03;1.52;;;18.50;64.50;;;;;;5058950;28;20515;-78
2023/08/09 07:21:22;;;;;;;7.57;1.50;;;18.30;64.60;;;;;;5032756;28;20022;-78
2023/08/09 07:23:50;;;;;;;3.00;1.40;;;18.30;64.80;;;;;;5032947;28;20122;-78
2023/08/09 07:26:17;;;;;;;4.90;1.48;;;18.30;64.90;;;;;;5033026;28;20025;-81
2023/08/09 07:28:44;;;;;;;3.55;1.52;;;18.30;64.60;;;;;;5048943;28;20124;-80
2023/08/09 07:31:22;;;;;;;5.38;1.60;;;18.20;64.80;;;;;;5052581;28;20392;-81
2023/08/09 07:33:51;;;;;;;6.10;1.50;;;18.20;65.00;;;;;;5052836;28;20020;-80
2023/08/09 07:36:18;;;;;;;6.65;1.38;;;18.10;64.90;;;;;;5058623;28;20020;-78
2023/08/09 07:38:46;;;;;;;4.00;1.70;;;18.10;65.00;;;;;;5056414;28;20032;-77
2023/08/09 07:41:18;;;;;;;4.88;1.92;;;18.00;65.10;;;;;;5057112;28;20033;-79
2023/08/09 07:43:45;;;;;;;7.28;1.88;;;18.00;65.30;;;;;;5055511;28;20017;-79
2023/08/09 07:46:13;;;;;;;8.45;1.73;;;18.00;65.20;;;;;;5055522;28;20055;-79
2023/08/09 07:48:40;;;;;;;4.35;1.40;;;18.00;65.10;;;;;;5055418;28;20033;-82
2023/08/09 07:51:11;;;;;;;3.25;1.48;;;17.90;65.10;;;;;;5053094;28;20029;-81
2023/08/09 07:53:39;;;;;;;4.07;1.90;;;17.90;65.30;;;;;;5053907;28;20112;-78
2023/08/09 07:56:08;;;;;;;3.90;1.60;;;17.80;65.30;;;;;;5053328;28;20092;-82
2023/08/09 07:58:37;;;;;;;4.90;2.20;;;17.80;65.50;;;;;;5054486;28;20045;-79
2023/08/09 08:01:04;;;;;;;3.70;1.55;;;17.80;65.40;;;;;;5050629;28;20439;-79
2023/08/09 08:03:33;;;;;;;3.80;1.30;;;17.80;65.30;;;;;;5053697;28;20048;-81
2023/08/09 08:06:01;;;;;;;6.63;1.83;;;17.80;65.60;;;;;;5052493;28;20104;-79
2023/08/09 08:08:30;;;;;;;4.53;2.10;;;17.80;65.50;;;;;;5050935;28;20029;-81
2023/08/09 08:10:57;;;;;;;5.75;1.92;;;17.70;65.40;;;;;;5052198;28;20083;-81
2023/08/09 08:13:25;;;;;;;4.03;1.98;;;17.70;65.60;;;;;;5052592;28;20056;-79
2023/08/09 08:15:52;;;;;;;5.25;2.10;;;17.70;65.50;;;;;;5053822;28;20094;-80
2023/08/09 08:18:20;;;;;;;3.80;1.60;;;17.70;65.60;;;;;;5052315;28;20033;-80
2023/08/09 08:20:47;;;;;;;2.92;1.48;;;17.70;65.80;;;;;;5056920;28;20375;-82
2023/08/09 08:23:14;;;;;;;5.70;1.98;;;17.70;65.90;;;;;;5072343;28;20135;-86
2023/08/09 08:25:45;;;;;;;5.47;1.83;;;17.60;65.90;;;;;;5057688;28;20100;-85
2023/08/09 08:28:12;;;;;;;7.40;1.85;;;17.60;66.10;;;;;;5054557;28;20033;-82
2023/08/09 08:30:40;;;;;;;4.65;2.13;;;17.50;66.20;;;;;;5055077;28;20353;-80
2023/08/09 08:33:09;;;;;;;7.72;2.25;;;17.60;65.90;;;;;;5053479;28;20138;-81
2023/08/09 08:35:43;;;;;;;3.22;1.60;;;17.60;65.80;;;;;;5055867;28;20025;-85
2023/08/09 08:38:10;;;;;;;6.22;2.92;;;17.50;65.90;;;;;;5053298;28;20025;-83
2023/08/09 08:40:38;;;;;;;5.85;2.50;;;17.50;66.00;;;;;;5053079;28;20056;-80
2023/08/09 08:43:08;;;;;;;7.22;3.17;;;17.50;66.20;;;;;;5054840;28;20499;-80
2023/08/09 08:45:39;;;;;;;11.57;3.25;;;17.50;66.10;;;;;;5056105;28;20052;-80
2023/08/09 08:48:12;;;;;;;11.48;3.42;;;17.40;66.10;;;;;;5055356;28;20032;-80
2023/08/09 08:50:41;;;;;;;6.07;2.08;;;17.40;66.40;;;;;;5056961;28;20529;-79
2023/08/09 08:53:10;;;;;;;6.32;2.50;;;17.40;66.40;;;;;;5056765;28;20075;-81
2023/08/09 08:55:39;;;;;;;5.95;2.22;;;17.30;66.40;;;;;;5056307;28;20021;-80
2023/08/09 08:58:08;;;;;;;4.97;2.28;;;17.40;66.40;;;;;;5053122;28;20059;-82
2023/08/09 09:00:38;;;;;;;9.48;2.22;;;17.30;66.60;;;;;;5055083;28;20373;-79
2023/08/09 09:03:06;;;;;;;5.72;2.10;;;17.30;66.60;;;;;;5054095;28;20044;-85
2023/08/09 09:05:35;;;;;;;5.18;2.33;;;17.30;66.60;;;;;;5056771;28;20028;-81
2023/08/09 09:08:04;;;;;;;4.30;2.17;;;17.30;66.50;;;;;;5057107;28;20052;-80
2023/08/09 09:10:31;;;;;;;4.60;2.40;;;17.30;66.70;;;;;;5055143;28;20025;-83
2023/08/09 09:12:59;;;;;;;4.28;2.10;;;17.30;66.80;;;;;;5055258;28;20044;-82
2023/08/09 09:15:28;;;;;;;6.35;2.33;;;17.20;67.10;;;;;;5065913;28;20540;-86
2023/08/09 09:17:55;;;;;;;7.03;2.63;;;17.20;66.90;;;;;;5054714;28;20045;-81
2023/08/09 09:20:29;;;;;;;8.30;2.33;;;17.20;67.30;;;;;;5054298;28;20388;-79
2023/08/09 09:22:57;;;;;;;4.88;2.22;;;17.20;67.10;;;;;;5056717;28;20021;-84
2023/08/09 09:25:24;;;;;;;5.53;2.17;;;17.20;67.20;;;;;;5053074;28;20029;-79
2023/08/09 09:27:57;;;;;;;7.53;2.60;;;17.20;67.20;;;;;;5054404;28;20028;-78
2023/08/09 09:30:31;;;;;;;4.68;2.42;;;17.10;67.40;;;;;;5054499;28;20040;-79
2023/08/09 09:33:03;;;;;;;6.03;2.17;;;17.00;67.60;;;;;;5054764;28;20013;-80
2023/08/09 09:35:33;;;;;;;3.03;2.22;;;17.00;67.70;;;;;;5053217;28;20029;-79
2023/08/09 09:38:03;;;;;;;5.57;1.98;;;17.00;67.60;;;;;;5053112;28;20025;-79
2023/08/09 09:40:32;;;;;;;6.13;1.98;;;17.00;67.90;;;;;;5055227;28;20028;-89
2023/08/09 09:43:01;;;;;;;5.13;1.90;;;17.00;67.20;;;;;;5054602;28;20017;-81
2023/08/09 09:45:30;;;;;;;4.80;1.80;;;16.90;67.40;;;;;;5054524;28;20053;-81
2023/08/09 09:48:04;;;;;;;6.15;2.15;;;17.00;67.20;;;;;;5054977;28;20099;-83
2023/08/09 09:50:33;;;;;;;6.10;2.22;;;16.90;67.40;;;;;;5054419;28;20036;-81
2023/08/09 09:53:02;;;;;;;8.60;2.58;;;16.90;67.70;;;;;;5055309;28;20021;-80
2023/08/09 09:55:31;;;;;;;6.10;2.13;;;16.90;67.40;;;;;;5054332;28;20086;-79
2023/08/09 09:57:59;;;;;;;2.58;1.77;;;16.80;67.60;;;;;;5053401;28;20021;-80
2023/08/09 10:00:27;;;;;;;4.10;2.00;;;16.90;67.50;;;;;;5053488;28;20029;-79
2023/08/09 10:02:56;;;;;;;6.03;2.28;;;16.90;67.40;;;;;;5053957;28;20032;-78
2023/08/09 10:05:39;;;;;;;4.10;2.10;;;16.80;67.30;;;;;;5053952;28;20021;-79
2023/08/09 10:08:12;;;;;;;5.88;2.10;;;16.90;67.40;;;;;;5054073;28;20021;-80
2023/08/09 10:10:42;;;;;;;3.80;2.17;;;16.80;67.50;;;;;;5053853;28;20033;-80
2023/08/09 10:13:12;;;;;;;5.15;2.25;;;16.80;67.50;;;;;;5053679;28;20025;-79
2023/08/09 10:15:44;;;;;;;4.22;2.05;;;16.80;67.60;;;;;;5053824;28;20037;-81
2023/08/09 10:18:26;;;;;;;6.68;2.20;;;16.80;67.70;;;;;;5053641;28;20053;-79
2023/08/09 10:20:57;;;;;;;3.47;2.10;;;16.80;67.80;;;;;;5053887;28;20424;-79
2023/08/09 10:23:30;;;;;;;4.90;2.10;;;16.90;67.60;;;;;;5053535;28;20360;-78
2023/08/09 10:25:59;;;;;;;4.43;2.25;;;16.80;67.50;;;;;;5052445;28;20032;-80
2023/08/09 10:28:45;;;;;;;3.90;1.95;;;16.80;67.60;;;;;;5053530;28;20546;-80
2023/08/09 10:31:13;;;;;;;5.45;1.92;;;16.80;67.70;;;;;;5052529;28;20021;-81
2023/08/09 10:34:09;;;;;;;4.03;1.95;;;16.70;67.70;;;;;;5053526;28;20079;-79
2023/08/09 10:36:37;;;;;;;4.10;1.88;;;16.70;67.80;;;;;;5049874;28;20928;-79
2023/08/09 10:39:17;;;;;;;3.75;1.75;;;16.70;67.90;;;;;;5051624;28;20025;-80
2023/08/09 10:42:14;;;;;;;4.15;1.65;;;16.70;68.00;;;;;;5053264;28;20021;-81
2023/08/09 10:44:44;;;;;;;5.80;1.70;;;16.70;68.10;;;;;;5052038;28;20021;-79
2023/08/09 10:47:25;;;;;;;4.57;1.75;;;16.70;67.70;;;;;;5053022;28;20028;-78
2023/08/09 10:49:53;;;;;;;3.13;1.77;;;16.70;68.10;;;;;;5052948;28;20128;-83
2023/08/09 10:52:35;;;;;;;5.28;2.05;;;16.60;68.00;;;;;;5053148;28;20021;-79
2023/08/09 10:55:21;;;;;;;3.53;1.58;;;16.60;68.30;;;;;;5051761;28;20033;-81
2023/08/09 10:57:50;;;;;;;3.45;1.42;;;16.60;68.30;;;;;;5053112;28;20098;-79
2023/08/09 11:00:19;;;;;;;3.83;2.05;;;16.60;68.30;;;;;;5051664;28;20033;-79
2023/08/09 11:02:51;;;;;;;4.72;1.88;;;16.50;68.30;;;;;;5053055;28;20049;-80
2023/08/09 11:05:20;;;;;;;4.25;2.50;;;16.50;68.70;;;;;;5052614;28;20025;-79
2023/08/09 11:07:54;;;;;;;3.45;1.90;;;16.50;68.50;;;;;;5052750;28;20494;-79
2023/08/09 11:10:39;;;;;;;4.03;1.80;;;16.50;68.70;;;;;;5050768;28;20037;-80
2023/08/09 11:13:16;;;;;;;7.60;1.90;;;16.50;68.70;;;;;;5032912;28;20025;-79
2023/08/09 11:15:50;;;;;;;4.90;1.80;;;16.60;68.30;;;;;;5032857;28;20029;-80
2023/08/09 11:18:18;;;;;;;3.60;1.50;;;16.50;68.30;;;;;;5046691;28;20048;-87
2023/08/09 11:20:45;;;;;;;2.67;1.50;;;16.50;68.30;;;;;;5052992;28;20029;-79
2023/08/09 11:23:13;;;;;;;4.38;1.35;;;16.50;68.10;;;;;;5052043;28;20029;-79
2023/08/09 11:25:40;;;;;;;2.47;1.30;;;16.40;68.60;;;;;;5051408;28;20108;-83
2023/08/09 11:28:13;;;;;;;1.92;1.38;;;16.40;68.70;;;;;;5053202;28;20013;-81
2023/08/09 11:30:41;;;;;;;7.00;1.70;;;16.40;68.90;;;;;;5053489;28;20056;-82
2023/08/09 11:33:11;;;;;;;5.20;1.77;;;16.40;69.00;;;;;;5052278;28;20024;-82
2023/08/09 11:35:43;;;;;;;3.17;1.40;;;16.40;68.90;;;;;;5053791;28;20037;-83
2023/08/09 11:38:16;;;;;;;2.92;1.70;;;16.40;68.90;;;;;;5057942;28;20025;-79
2023/08/09 11:40:50;;;;;;;4.38;1.92;;;16.40;69.00;;;;;;5062472;28;20029;-79
2023/08/09 11:43:20;;;;;;;3.72;1.92;;;16.30;69.20;;;;;;5058037;28;20029;-85
2023/08/09 11:45:56;;;;;;;2.47;1.30;;;16.30;69.00;;;;;;5058956;28;20044;-81
2023/08/09 11:48:23;;;;;;;;;;;16.20;69.30;;;;;;5057380;28;20051;-81
2023/08/09 11:51:23;;;;;;;4.60;1.48;;;16.20;69.60;;;;;;5057649;28;19909;-81
2023/08/09 11:53:51;;;;;;;2.58;1.30;;;16.20;69.70;;;;;;5055591;28;20563;-82
2023/08/09 11:56:23;;;;;;;2.50;1.42;;;16.20;69.80;;;;;;5056984;28;20064;-79
2023/08/09 11:58:53;;;;;;;2.08;1.33;;;16.20;69.90;;;;;;5055954;28;20025;-78
2023/08/09 12:01:26;;;;;;;2.70;1.48;;;16.20;70.00;;;;;;5058901;28;20052;-85
2023/08/09 12:03:58;;;;;;;3.25;1.40;;;16.20;70.20;;;;;;5057250;28;20029;-81
2023/08/09 12:06:55;;;;;;;2.50;1.23;;;16.20;70.00;;;;;;5057055;28;20075;-80
2023/08/09 12:09:38;;;;;;;;;;;16.10;70.10;;;;;;5056891;28;20033;-81
2023/08/09 12:12:19;;;;;;;5.28;1.80;;;16.10;70.20;;;;;;5054757;28;19999;-80
2023/08/09 12:14:53;;;;;;;2.33;2.05;;;16.10;70.00;;;;;;5055247;28;20391;-85
2023/08/09 12:17:24;;;;;;;2.22;1.50;;;16.10;70.10;;;;;;5054852;28;20063;-84
2023/08/09 12:19:57;;;;;;;3.08;1.48;;;16.00;70.30;;;;;;5056475;28;20021;-81
2023/08/09 12:22:28;;;;;;;3.03;1.45;;;16.00;70.10;;;;;;5056310;28;20034;-83
2023/08/09 12:24:57;;;;;;;2.83;1.80;;;16.00;70.20;;;;;;5055193;28;20066;-84
2023/08/09 12:27:25;;;;;;;3.72;1.80;;;16.00;70.10;;;;;;5055711;28;20033;-85
2023/08/09 12:29:53;;;;;;;3.20;1.30;;;16.00;70.20;;;;;;5055748;28;20083;-79
2023/08/09 12:32:21;;;;;;;3.92;1.70;;;15.90;70.40;;;;;;5055969;28;20502;-80
2023/08/09 12:34:49;;;;;;;7.10;1.58;;;15.90;70.20;;;;;;5055820;28;20028;-80
2023/08/09 12:37:17;;;;;;;2.92;1.85;;;15.90;70.20;;;;;;5055499;28;20035;-80
2023/08/09 12:39:45;;;;;;;3.20;1.30;;;15.90;70.30;;;;;;5055683;28;20063;-80
2023/08/09 12:42:12;;;;;;;6.22;1.58;;;15.80;70.30;;;;;;5054795;28;20028;-85
2023/08/09 12:44:40;;;;;;;2.38;1.38;;;15.90;70.30;;;;;;5054695;28;20029;-80
2023/08/09 12:47:08;;;;;;;2.45;1.50;;;15.80;69.90;;;;;;5054029;28;20109;-79
2023/08/09 12:49:36;;;;;;;4.30;1.60;;;15.90;70.20;;;;;;5045647;28;20040;-82
2023/08/09 12:52:03;;;;;;;3.50;1.65;;;15.80;70.00;;;;;;5060540;28;20025;-80
2023/08/09 12:54:31;;;;;;;4.22;1.58;;;15.80;69.90;;;;;;5058241;28;20032;-79
2023/08/09 12:56:58;;;;;;;2.35;1.70;;;15.80;69.80;;;;;;5061600;28;20020;-87
2023/08/09 12:59:25;;;;;;;2.60;1.40;;;15.80;69.80;;;;;;5053417;28;20025;-79